createdAt,value
2022-10-28T00:01:18.603Z,2.85
2022-10-28T00:03:50.911Z,2.75
2022-10-28T00:06:20.495Z,3.03
2022-10-28T00:11:17.266Z,3.20
2022-10-28T00:13:45.603Z,3.03
2022-10-28T00:16:16.612Z,2.88
2022-10-28T00:18:44.041Z,3.22
2022-10-28T00:21:19.913Z,2.78
2022-10-28T00:23:46.785Z,2.95
2022-10-28T00:26:18.150Z,3.15
2022-10-28T00:28:50.086Z,3.28
2022-10-28T00:31:18.861Z,3.83
2022-10-28T00:33:46.480Z,3.15
2022-10-28T00:36:18.856Z,3.00
2022-10-28T00:38:47.041Z,2.80
2022-10-28T00:41:16.528Z,3.40
2022-10-28T00:46:42.556Z,3.17
2022-10-28T00:49:26.107Z,3.42
2022-10-28T00:51:56.465Z,3.15
2022-10-28T00:54:23.787Z,3.08
2022-10-28T00:56:55.300Z,3.00
2022-10-28T00:59:26.957Z,2.83
2022-10-28T01:01:54.348Z,3.13
2022-10-28T01:04:23.577Z,2.63
2022-10-28T01:06:52.566Z,3.05
2022-10-28T01:09:19.562Z,3.53
2022-10-28T01:12:02.298Z,3.20
2022-10-28T01:15:00.134Z,2.85
2022-10-28T01:17:54.500Z,2.50
2022-10-28T01:20:41.668Z,3.03
2022-10-28T01:23:46.137Z,3.67
2022-10-28T01:26:55.767Z,3.33
2022-10-28T01:29:34.773Z,3.42
2022-10-28T01:32:26.167Z,2.72
2022-10-28T01:35:18.909Z,3.25
2022-10-28T01:37:55.554Z,3.05
2022-10-28T01:40:38.622Z,3.58
2022-10-28T01:43:26.497Z,3.35
2022-10-28T01:46:18.737Z,3.55
2022-10-28T01:48:53.964Z,2.85
2022-10-28T01:51:36.074Z,3.63
2022-10-28T01:54:06.216Z,3.42
2022-10-28T01:56:37.375Z,3.60
2022-10-28T01:59:07.871Z,3.45
2022-10-28T02:01:35.976Z,3.42
2022-10-28T02:04:03.730Z,3.28
2022-10-28T02:06:33.054Z,3.88
2022-10-28T02:09:20.636Z,3.08
2022-10-28T02:12:15.335Z,3.38
2022-10-28T02:14:54.577Z,2.75
2022-10-28T02:18:07.507Z,3.55
2022-10-28T02:20:34.559Z,2.72
2022-10-28T02:23:35.433Z,3.28
2022-10-28T02:26:27.749Z,4.22
2022-10-28T02:29:23.040Z,2.65
2022-10-28T02:31:54.859Z,4.15
2022-10-28T02:34:26.168Z,3.85
2022-10-28T02:36:57.921Z,3.08
2022-10-28T02:39:32.744Z,4.28
2022-10-28T02:42:25.941Z,3.13
2022-10-28T02:45:01.232Z,2.95
2022-10-28T02:47:33.215Z,3.83
2022-10-28T02:50:07.263Z,3.50
2022-10-28T02:52:35.467Z,2.55
2022-10-28T02:55:05.502Z,3.78
2022-10-28T02:57:44.769Z,3.92
2022-10-28T03:00:18.232Z,3.92
2022-10-28T03:02:45.153Z,3.45
2022-10-28T03:05:12.200Z,3.00
2022-10-28T03:07:39.184Z,3.08
2022-10-28T03:10:06.605Z,3.92
2022-10-28T03:12:33.333Z,4.50
2022-10-28T03:15:00.336Z,3.85
2022-10-28T03:17:27.600Z,3.08
2022-10-28T03:19:54.433Z,3.90
2022-10-28T03:22:21.469Z,3.53
2022-10-28T03:24:48.510Z,3.58
2022-10-28T03:27:15.591Z,3.47
2022-10-28T03:29:45.682Z,4.38
2022-10-28T03:32:13.334Z,4.15
2022-10-28T03:34:40.471Z,3.92
2022-10-28T03:37:07.468Z,4.38
2022-10-28T03:39:34.493Z,3.30
2022-10-28T03:42:01.694Z,3.03
2022-10-28T03:44:28.610Z,3.53
2022-10-28T03:46:55.657Z,3.53
2022-10-28T03:49:22.746Z,3.17
2022-10-28T03:51:49.762Z,4.13
2022-10-28T03:54:16.843Z,3.10
2022-10-28T03:56:43.882Z,3.88
2022-10-28T03:59:13.188Z,3.55
2022-10-28T04:01:42.119Z,3.70
2022-10-28T04:04:09.074Z,3.60
2022-10-28T04:06:36.109Z,4.75
2022-10-28T04:09:03.180Z,3.50
2022-10-28T04:11:29.874Z,4.00
2022-10-28T04:13:56.860Z,3.67
2022-10-28T04:16:23.904Z,4.18
2022-10-28T04:18:51.023Z,3.97
2022-10-28T04:21:18.228Z,3.30
2022-10-28T04:23:45.057Z,4.25
2022-10-28T04:26:19.199Z,3.97
2022-10-28T04:28:46.093Z,4.43
2022-10-28T04:31:12.752Z,3.90
2022-10-28T04:33:39.788Z,4.10
2022-10-28T04:36:07.076Z,4.05
2022-10-28T04:38:33.922Z,3.22
2022-10-28T04:41:00.699Z,4.13
2022-10-28T04:43:27.582Z,2.88
2022-10-28T04:45:54.653Z,4.07
2022-10-28T04:48:23.405Z,3.75
2022-10-28T04:50:50.968Z,3.80
2022-10-28T04:53:17.825Z,3.97
2022-10-28T04:55:45.364Z,3.33
2022-10-28T04:58:12.328Z,4.13
2022-10-28T05:00:38.991Z,4.15
2022-10-28T05:03:06.088Z,3.55
2022-10-28T05:05:35.128Z,3.97
2022-10-28T05:08:02.432Z,3.95
2022-10-28T05:10:30.317Z,3.88
2022-10-28T05:12:57.098Z,3.60
2022-10-28T05:15:26.397Z,4.30
2022-10-28T05:17:53.776Z,3.63
2022-10-28T05:20:20.916Z,3.45
2022-10-28T05:22:53.778Z,3.42
2022-10-28T05:25:22.001Z,3.80
2022-10-28T05:27:49.029Z,3.22
2022-10-28T05:30:16.425Z,4.32
2022-10-28T05:32:43.352Z,4.32
2022-10-28T05:35:10.999Z,3.53
2022-10-28T05:37:37.899Z,4.38
2022-10-28T05:40:05.165Z,3.00
2022-10-28T05:42:31.872Z,4.38
2022-10-28T05:44:58.515Z,3.40
2022-10-28T05:47:25.257Z,3.67
2022-10-28T05:49:52.223Z,4.65
2022-10-28T05:52:19.997Z,3.60
2022-10-28T05:54:46.729Z,2.70
2022-10-28T05:57:13.764Z,3.63
2022-10-28T05:59:40.824Z,3.95
2022-10-28T06:02:14.858Z,4.63
2022-10-28T06:04:42.163Z,4.32
2022-10-28T06:07:09.461Z,4.45
2022-10-28T06:09:40.520Z,4.00
2022-10-28T06:12:06.820Z,3.80
2022-10-28T06:14:33.662Z,4.10
2022-10-28T06:17:00.843Z,4.50
2022-10-28T06:19:27.744Z,3.30
2022-10-28T06:21:54.380Z,3.65
2022-10-28T06:24:21.073Z,4.70
2022-10-28T06:26:48.093Z,3.70
2022-10-28T06:29:15.162Z,3.83
2022-10-28T06:31:43.139Z,3.85
2022-10-28T06:34:11.094Z,3.17
2022-10-28T06:36:38.250Z,3.78
2022-10-28T06:39:05.415Z,3.85
2022-10-28T06:41:33.159Z,3.67
2022-10-28T06:44:00.064Z,4.10
2022-10-28T06:46:27.595Z,3.70
2022-10-28T06:48:56.092Z,4.75
2022-10-28T06:51:23.050Z,4.35
2022-10-28T06:53:51.289Z,3.55
2022-10-28T06:56:18.601Z,3.85
2022-10-28T06:58:50.706Z,3.22
2022-10-28T07:01:18.578Z,3.65
2022-10-28T07:03:46.588Z,3.92
2022-10-28T07:08:46.262Z,5.97
2022-10-28T07:11:14.015Z,3.40
2022-10-28T07:13:42.449Z,3.60
2022-10-28T07:16:11.119Z,4.13
2022-10-28T07:18:38.179Z,4.40
2022-10-28T07:21:05.348Z,3.90
2022-10-28T07:23:32.962Z,3.88
2022-10-28T07:25:59.741Z,3.50
2022-10-28T07:28:27.378Z,3.70
2022-10-28T07:30:54.538Z,3.42
2022-10-28T07:33:22.478Z,3.67
2022-10-28T07:35:50.362Z,3.38
2022-10-28T07:38:17.459Z,3.47
2022-10-28T07:40:44.522Z,3.95
2022-10-28T07:43:11.586Z,4.25
2022-10-28T07:45:38.619Z,3.42
2022-10-28T07:48:06.434Z,3.85
2022-10-28T07:50:33.540Z,4.55
2022-10-28T07:53:00.848Z,3.63
2022-10-28T07:55:28.164Z,2.92
2022-10-28T07:57:55.388Z,4.10
2022-10-28T08:00:22.515Z,4.10
2022-10-28T08:02:49.316Z,4.07
2022-10-28T08:05:16.246Z,3.72
2022-10-28T08:07:43.292Z,3.88
2022-10-28T08:10:11.091Z,4.18
2022-10-28T08:12:38.123Z,4.93
2022-10-28T08:15:05.610Z,4.03
2022-10-28T08:17:32.601Z,3.40
2022-10-28T08:19:59.632Z,3.50
2022-10-28T08:22:26.298Z,3.70
2022-10-28T08:24:53.318Z,3.88
2022-10-28T08:27:21.185Z,5.18
2022-10-28T08:29:47.831Z,4.20
2022-10-28T08:32:14.870Z,4.13
2022-10-28T08:34:43.613Z,3.60
2022-10-28T08:37:10.991Z,3.83
2022-10-28T08:39:38.899Z,4.30
2022-10-28T08:42:38.367Z,3.10
2022-10-28T08:50:49.357Z,3.65
2022-10-28T08:53:42.486Z,4.18
2022-10-28T08:56:45.904Z,3.88
2022-10-28T08:59:17.663Z,3.90
2022-10-28T09:01:48.326Z,4.60
2022-10-28T09:04:44.091Z,5.18
2022-10-28T09:07:18.787Z,4.13
2022-10-28T09:09:47.193Z,3.60
2022-10-28T09:12:19.097Z,4.40
2022-10-28T09:15:18.036Z,4.32
2022-10-28T09:17:56.268Z,4.22
2022-10-28T09:20:36.031Z,6.45
2022-10-28T09:25:54.358Z,4.60
2022-10-28T09:28:29.548Z,4.22
2022-10-28T09:30:59.071Z,4.35
2022-10-28T09:33:40.548Z,3.85
2022-10-28T09:36:19.162Z,3.47
2022-10-28T09:38:47.733Z,4.57
2022-10-28T09:41:20.776Z,3.17
2022-10-28T09:43:53.631Z,3.60
2022-10-28T09:46:22.089Z,3.20
2022-10-28T09:48:55.618Z,3.23
2022-10-28T09:51:44.978Z,3.75
2022-10-28T09:54:13.311Z,3.50
2022-10-28T09:56:40.652Z,4.10
2022-10-28T09:59:11.580Z,3.42
2022-10-28T10:01:40.906Z,3.45
2022-10-28T10:04:26.040Z,3.42
2022-10-28T10:07:02.426Z,3.92
2022-10-28T10:09:32.399Z,3.63
2022-10-28T10:12:12.592Z,3.40
2022-10-28T10:14:49.540Z,3.60
2022-10-28T10:17:20.207Z,4.43
2022-10-28T10:20:02.804Z,4.25
2022-10-28T10:22:36.600Z,3.83
2022-10-28T10:25:20.206Z,3.22
2022-10-28T10:28:01.851Z,3.38
2022-10-28T10:30:28.491Z,3.20
2022-10-28T10:32:56.637Z,3.72
2022-10-28T10:35:36.871Z,3.60
2022-10-28T10:38:06.492Z,3.78
2022-10-28T10:40:48.342Z,3.22
2022-10-28T10:43:15.164Z,3.30
2022-10-28T10:45:53.625Z,4.88
2022-10-28T10:48:20.498Z,3.30
2022-10-28T10:50:48.906Z,2.92
2022-10-28T10:53:26.108Z,3.50
2022-10-28T10:56:15.624Z,3.15
2022-10-28T10:58:54.699Z,3.05
2022-10-28T11:01:32.623Z,2.80
2022-10-28T11:04:04.699Z,2.65
2022-10-28T11:06:35.919Z,4.07
2022-10-28T11:09:18.052Z,3.22
2022-10-28T11:11:45.187Z,3.97
2022-10-28T11:14:14.603Z,3.15
2022-10-28T11:16:50.322Z,3.45
2022-10-28T11:19:29.394Z,3.92
2022-10-28T11:22:21.839Z,3.88
2022-10-28T11:25:00.745Z,3.95
2022-10-28T11:27:48.597Z,3.50
2022-10-28T11:30:27.040Z,5.00
2022-10-28T11:33:28.915Z,3.65
2022-10-28T11:36:03.080Z,3.13
2022-10-28T11:38:43.263Z,4.63
2022-10-28T11:41:30.760Z,4.15
2022-10-28T11:44:04.806Z,3.65
2022-10-28T11:47:04.022Z,4.65
2022-10-28T11:49:50.563Z,3.30
2022-10-28T11:52:26.910Z,4.18
2022-10-28T11:55:02.437Z,2.95
2022-10-28T11:57:54.414Z,15.43
2022-10-28T12:00:36.952Z,3.70
2022-10-28T12:03:42.752Z,2.90
2022-10-28T12:06:20.612Z,3.25
2022-10-28T12:08:50.405Z,3.17
2022-10-28T12:11:23.379Z,2.75
2022-10-28T12:13:58.959Z,4.95
2022-10-28T12:16:48.107Z,4.03
2022-10-28T12:21:53.259Z,3.08
2022-10-28T12:24:23.907Z,4.97
2022-10-28T12:27:05.708Z,3.50
2022-10-28T12:29:40.656Z,3.10
2022-10-28T12:32:12.296Z,3.30
2022-10-28T12:34:45.504Z,3.05
2022-10-28T12:37:46.191Z,3.40
2022-10-28T12:40:37.208Z,3.38
2022-10-28T12:43:34.394Z,3.83
2022-10-28T12:46:02.255Z,3.00
2022-10-28T12:48:35.233Z,3.90
2022-10-28T12:51:19.584Z,3.63
2022-10-28T12:53:58.371Z,3.40
2022-10-28T12:56:31.632Z,2.97
2022-10-28T12:59:06.754Z,3.28
2022-10-28T13:01:35.335Z,2.97
2022-10-28T13:04:02.557Z,3.40
2022-10-28T13:06:48.606Z,4.35
2022-10-28T13:09:42.625Z,4.10
2022-10-28T13:12:34.602Z,4.13
2022-10-28T13:15:10.567Z,3.72
2022-10-28T13:18:05.540Z,3.30
2022-10-28T13:20:59.455Z,3.50
2022-10-28T13:23:42.376Z,2.97
2022-10-28T13:26:24.172Z,2.92
2022-10-28T13:28:55.004Z,3.42
2022-10-28T13:31:22.490Z,4.90
2022-10-28T13:34:00.331Z,3.70
2022-10-28T13:36:31.368Z,16.35
2022-10-28T13:39:01.515Z,2.95
2022-10-28T13:41:37.347Z,4.47
2022-10-28T13:44:20.579Z,3.58
2022-10-28T13:47:01.216Z,4.32
2022-10-28T13:49:33.302Z,3.85
2022-10-28T13:52:03.602Z,3.30
2022-10-28T13:54:53.670Z,3.50
2022-10-28T13:57:36.447Z,4.30
2022-10-28T14:00:24.031Z,4.38
2022-10-28T14:02:55.757Z,4.32
2022-10-28T14:05:45.898Z,3.20
2022-10-28T14:08:28.415Z,4.00
2022-10-28T14:11:23.036Z,2.92
2022-10-28T14:13:53.799Z,3.60
2022-10-28T14:16:31.748Z,3.65
2022-10-28T14:19:25.306Z,4.00
2022-10-28T14:22:03.340Z,2.97
2022-10-28T14:24:36.471Z,3.28
2022-10-28T14:27:06.564Z,2.78
2022-10-28T14:29:56.719Z,3.33
2022-10-28T14:32:34.793Z,3.90
2022-10-28T14:35:10.328Z,3.67
2022-10-28T14:37:55.219Z,3.85
2022-10-28T14:40:40.903Z,4.25
2022-10-28T14:43:18.734Z,4.63
2022-10-28T14:46:01.891Z,3.20
2022-10-28T14:48:45.203Z,3.35
2022-10-28T14:51:19.561Z,4.13
2022-10-28T14:53:47.340Z,5.00
2022-10-28T14:58:50.909Z,3.20
2022-10-28T15:01:17.717Z,3.78
2022-10-28T15:03:47.321Z,3.30
2022-10-28T15:06:41.725Z,3.10
2022-10-28T15:09:25.136Z,4.05
2022-10-28T15:12:10.952Z,4.18
2022-10-28T15:14:47.410Z,2.97
2022-10-28T15:17:20.798Z,5.47
2022-10-28T15:19:59.244Z,4.68
2022-10-28T15:22:31.114Z,3.77
2022-10-28T15:25:00.054Z,4.57
2022-10-28T15:27:32.028Z,4.60
2022-10-28T15:29:59.091Z,4.32
2022-10-28T15:32:28.328Z,4.70
2022-10-28T15:34:55.680Z,4.43
2022-10-28T15:37:28.804Z,3.03
2022-10-28T15:40:26.619Z,5.15
2022-10-28T15:43:00.719Z,4.55
2022-10-28T15:45:30.604Z,3.25
2022-10-28T15:47:59.411Z,4.03
2022-10-28T15:50:35.012Z,3.85
2022-10-28T15:53:11.115Z,5.28
2022-10-28T15:56:07.005Z,4.18
2022-10-28T15:58:58.680Z,5.53
2022-10-28T16:01:34.957Z,4.38
2022-10-28T16:04:01.791Z,4.93
2022-10-28T16:06:36.848Z,8.02
2022-10-28T16:09:06.891Z,5.00
2022-10-28T16:11:39.213Z,3.80
2022-10-28T16:14:33.087Z,4.85
2022-10-28T16:17:07.374Z,4.55
2022-10-28T16:19:39.329Z,4.45
2022-10-28T16:22:10.932Z,7.25
2022-10-28T16:24:37.953Z,5.85
2022-10-28T16:27:27.311Z,6.25
2022-10-28T16:32:35.431Z,6.28
2022-10-28T16:35:03.526Z,6.15
2022-10-28T16:37:32.580Z,5.40
2022-10-28T16:39:59.796Z,5.20
2022-10-28T16:42:27.109Z,4.00
2022-10-28T16:44:54.117Z,4.55
2022-10-28T16:47:25.583Z,4.43
2022-10-28T16:49:57.126Z,4.45
2022-10-28T16:52:27.589Z,4.47
2022-10-28T16:54:54.995Z,3.75
2022-10-28T16:59:54.776Z,4.40
2022-10-28T17:02:36.026Z,4.57
2022-10-28T17:05:07.426Z,5.30
2022-10-28T17:07:34.335Z,5.22
2022-10-28T17:10:00.963Z,5.32
2022-10-28T17:12:28.019Z,6.30
2022-10-28T17:14:54.807Z,5.65
2022-10-28T17:17:23.021Z,5.93
2022-10-28T17:19:50.131Z,7.85
2022-10-28T17:22:17.142Z,9.45
2022-10-28T17:24:44.219Z,9.43
2022-10-28T17:27:11.162Z,8.05
2022-10-28T17:29:38.785Z,6.97
2022-10-28T17:32:08.615Z,6.63
2022-10-28T17:34:36.048Z,6.18
2022-10-28T17:37:03.353Z,5.82
2022-10-28T17:39:30.341Z,5.40
2022-10-28T17:41:57.228Z,5.22
2022-10-28T17:44:24.632Z,5.47
2022-10-28T17:46:51.974Z,4.88
2022-10-28T17:49:19.131Z,5.13
2022-10-28T17:51:46.187Z,4.78
2022-10-28T17:54:13.539Z,4.90
2022-10-28T17:56:41.953Z,5.93
2022-10-28T17:59:08.961Z,7.50
2022-10-28T18:01:36.494Z,6.65
2022-10-28T18:04:04.575Z,6.20
2022-10-28T18:06:31.624Z,6.22
2022-10-28T18:08:58.576Z,5.38
2022-10-28T18:11:27.259Z,7.50
2022-10-28T18:13:55.894Z,5.53
2022-10-28T18:16:27.474Z,5.27
2022-10-28T18:18:55.504Z,4.60
2022-10-28T18:21:23.073Z,5.60
2022-10-28T18:23:53.797Z,6.47
2022-10-28T18:26:21.005Z,5.10
2022-10-28T18:28:49.063Z,5.18
2022-10-28T18:31:18.724Z,5.10
2022-10-28T18:33:46.555Z,5.35
2022-10-28T18:36:15.765Z,6.55
2022-10-28T18:38:43.015Z,5.50
2022-10-28T18:41:11.682Z,5.35
2022-10-28T18:43:40.791Z,5.97
2022-10-28T18:46:08.512Z,5.95
2022-10-28T18:48:35.895Z,10.25
2022-10-28T18:51:06.753Z,10.45
2022-10-28T18:53:37.896Z,8.52
2022-10-28T18:56:06.428Z,8.50
2022-10-28T18:58:33.744Z,13.18
2022-10-28T19:01:11.848Z,9.80
2022-10-28T19:03:39.756Z,12.43
2022-10-28T19:06:16.979Z,8.95
2022-10-28T19:08:44.337Z,8.18
2022-10-28T19:11:13.433Z,7.38
2022-10-28T19:13:41.562Z,7.70
2022-10-28T19:16:09.163Z,8.93
2022-10-28T19:18:38.135Z,8.20
2022-10-28T19:21:08.421Z,8.38
2022-10-28T19:23:35.406Z,7.15
2022-10-28T19:26:04.040Z,9.50
2022-10-28T19:28:36.692Z,8.10
2022-10-28T19:31:05.263Z,8.65
2022-10-28T19:33:32.825Z,8.43
2022-10-28T19:36:26.980Z,7.38
2022-10-28T19:38:54.514Z,7.70
2022-10-28T19:41:27.059Z,7.63
2022-10-28T19:43:58.976Z,6.25
2022-10-28T19:46:27.382Z,6.28
2022-10-28T19:48:59.263Z,5.07
2022-10-28T19:51:28.705Z,5.50
2022-10-28T19:56:27.996Z,6.32
2022-10-28T19:58:59.695Z,8.52
2022-10-28T20:01:29.396Z,5.88
2022-10-28T20:03:57.066Z,6.57
2022-10-28T20:06:33.258Z,6.72
2022-10-28T20:09:00.559Z,33.67
2022-10-28T20:11:31.727Z,48.97
2022-10-28T20:14:01.777Z,21.63
2022-10-28T20:16:30.404Z,37.28
2022-10-28T20:18:59.021Z,18.00
2022-10-28T20:21:28.585Z,17.63
2022-10-28T20:26:27.949Z,11.65
2022-10-28T20:28:59.399Z,6.97
2022-10-28T20:31:29.456Z,6.15
2022-10-28T20:34:00.595Z,7.22
2022-10-28T20:36:42.199Z,7.35
2022-10-28T20:39:16.899Z,6.15
2022-10-28T20:41:45.586Z,7.30
2022-10-28T20:44:12.610Z,7.37
2022-10-28T20:46:39.608Z,6.53
2022-10-28T20:49:08.690Z,7.75
2022-10-28T20:51:36.843Z,7.82
2022-10-28T20:54:03.954Z,7.05
2022-10-28T20:56:34.157Z,6.60
2022-10-28T20:59:01.275Z,5.20
2022-10-28T21:01:30.739Z,7.28
2022-10-28T21:04:01.291Z,6.10
2022-10-28T21:06:28.745Z,6.30
2022-10-28T21:08:56.614Z,6.60
2022-10-28T21:11:25.199Z,7.15
2022-10-28T21:13:54.525Z,7.20
2022-10-28T21:16:22.469Z,6.88
2022-10-28T21:18:50.186Z,7.10
2022-10-28T21:21:18.786Z,6.90
2022-10-28T21:23:46.083Z,8.30
2022-10-28T21:26:13.487Z,6.18
2022-10-28T21:28:43.860Z,6.82
2022-10-28T21:31:14.606Z,6.95
2022-10-28T21:33:42.846Z,7.10
2022-10-28T21:36:12.452Z,6.03
2022-10-28T21:41:17.823Z,7.05
2022-10-28T21:43:49.529Z,6.63
2022-10-28T21:46:17.806Z,5.50
2022-10-28T21:48:45.035Z,6.13
2022-10-28T21:51:15.182Z,7.93
2022-10-28T21:53:43.800Z,5.20
2022-10-28T21:56:19.445Z,5.78
2022-10-28T21:58:48.269Z,7.18
2022-10-28T22:01:18.835Z,7.57
2022-10-28T22:03:45.987Z,6.53
2022-10-28T22:06:13.366Z,6.70
2022-10-28T22:08:40.768Z,6.40
2022-10-28T22:11:18.814Z,6.82
2022-10-28T22:13:46.122Z,6.35
2022-10-28T22:16:17.813Z,5.95
2022-10-28T22:18:45.586Z,6.93
2022-10-28T22:21:18.047Z,6.70
2022-10-28T22:23:45.254Z,7.18
2022-10-28T22:26:23.975Z,7.40
2022-10-28T22:28:51.881Z,8.10
2022-10-28T22:31:21.185Z,6.20
2022-10-28T22:33:48.608Z,6.88
2022-10-28T22:36:21.160Z,7.55
2022-10-28T22:38:48.659Z,7.00
2022-10-28T22:41:24.165Z,6.70
2022-10-28T22:43:59.316Z,6.93
2022-10-28T22:46:30.755Z,8.20
2022-10-28T22:48:58.867Z,6.53
2022-10-28T22:51:25.824Z,6.28
2022-10-28T22:53:52.951Z,7.95
2022-10-28T22:56:22.257Z,6.68
2022-10-28T22:58:53.782Z,6.00
2022-10-28T23:01:21.210Z,6.07
2022-10-28T23:03:49.926Z,7.03
2022-10-28T23:06:18.803Z,7.77
2022-10-28T23:08:46.348Z,5.53
2022-10-28T23:11:14.624Z,6.70
2022-10-28T23:13:41.500Z,7.53
2022-10-28T23:16:13.563Z,6.20
2022-10-28T23:18:41.083Z,6.07
2022-10-28T23:21:16.690Z,6.57
2022-10-28T23:23:49.744Z,6.88
2022-10-28T23:26:20.191Z,5.85
2022-10-28T23:28:52.034Z,5.43
2022-10-28T23:31:20.135Z,6.88
2022-10-28T23:33:47.428Z,6.82
2022-10-28T23:36:15.383Z,6.50
2022-10-28T23:38:42.957Z,7.72
2022-10-28T23:41:18.665Z,6.97
2022-10-28T23:43:47.265Z,8.73
2022-10-28T23:46:14.129Z,7.43
2022-10-28T23:48:41.128Z,8.20
2022-10-28T23:51:08.224Z,7.05
2022-10-28T23:53:35.264Z,7.22
2022-10-28T23:56:02.292Z,6.93
2022-10-28T23:58:29.290Z,8.32
